INGA4: Red River, Index, AR

Data processed at Fri Jun 24 23:11:16 2016 Central Daylight Time


All information presented herein is the property of the government of the United States of America and may be revised or deleted at any time without prior notice.
Dissemination of this information without the expressed written consent of the Public Affairs Office, Tulsa District U.S. Army Corps of Engineers is strictly prohibited.
These data are gathered electronically and, as presented, have not undergone any form of quality control. These data are not guaranteed to be valid or correct.
Go to home page.
Go to station list.
Go to station map.

Upstream stations:

Downstream station: Previous Day
Next Day
Current Day

Display graphics.
Display DCP transmissions.


    
    SHEF ID:       INGA4     Red River, Index, AR
    STATION TYPE:  STREAM GAGE
    Regulation Limits:  Stage =   19.80, Flow =   91647
    
                   PRECIP     STAGE  RIV-FLOW  WTR-TEMP  BAT-LOAD
                   INCHES      FEET       CFS     DEG-F     VOLTS
                     GOES      GOES      GOES      GOES      GOES
       (Cen)
    06/24 01:00      0.00      9.38     33477     29.70     12.65
    06/24 02:00      0.00      9.37     33435     29.70     12.65
    06/24 03:00      0.00      9.37     33435     29.60     12.65
    06/24 04:00      0.00      9.37     33435     29.60     12.65
    06/24 05:00      0.00      9.37     33435     29.50     12.65
    06/24 06:00      0.00      9.36     33394     29.50     12.57
    06/24 07:00      0.00      9.37     33435     29.40     12.57
    06/24 08:00      0.00      9.36     33394     29.40     12.57
    06/24 09:00      0.00      9.37     33435     29.40     12.57
    06/24 10:00      0.00      9.36     33394     29.40     13.05
    06/24 11:00      0.00      9.39     33518     29.60     13.21
    06/24 12:00      0.00      9.38     33477     29.70     13.13
    06/24 13:00      0.00      9.36     33394     29.90     12.97
    06/24 14:00      0.00      9.36     33394     30.00     12.97
    06/24 15:00      0.00      9.38     33477     30.20     12.97
    06/24 16:00      0.00      9.36     33394     30.30     12.89
    06/24 17:00      0.00      9.35     33353     30.40     12.89
    06/24 18:00      0.00      9.35     33353     30.40     12.89
    06/24 19:00      0.00      9.32     33229     30.40     12.89
    06/24 20:00      0.00      9.32     33229     30.30     12.81
    06/24 21:00      0.00      9.30     33147     30.20     12.81
    06/24 22:00      0.00      9.29     33106     30.10     12.73
    06/24 23:00      0.00      9.26     32982     30.00     12.73
    06/25 00:00      ----      ----      ----      ----      ----